createdAt,value
2018-06-03T00:03:00.612Z,75.99
2018-06-03T00:06:06.789Z,75.79
2018-06-03T00:09:11.867Z,76.03
2018-06-03T00:12:16.959Z,75.93
2018-06-03T00:15:21.700Z,75.94
2018-06-03T00:18:27.673Z,75.79
2018-06-03T00:21:44.143Z,75.75
2018-06-03T00:24:50.090Z,75.83
2018-06-03T00:27:55.950Z,75.82
2018-06-03T00:31:01.958Z,75.78
2018-06-03T00:34:08.896Z,76.00
2018-06-03T00:37:15.041Z,75.54
2018-06-03T00:40:20.295Z,75.66
2018-06-03T00:43:27.428Z,75.75
2018-06-03T00:47:08.211Z,77.12
2018-06-03T00:50:14.289Z,76.69
2018-06-03T00:53:20.095Z,77.12
2018-06-03T00:56:36.506Z,76.66
2018-06-03T00:59:43.047Z,76.66
2018-06-03T01:02:49.191Z,76.17
2018-06-03T01:05:54.339Z,77.04
2018-06-03T01:09:00.006Z,76.35
2018-06-03T01:12:06.156Z,76.89
2018-06-03T01:15:11.626Z,77.15
2018-06-03T01:18:17.766Z,76.53
2018-06-03T01:21:22.926Z,76.84
2018-06-03T01:24:28.058Z,77.08
2018-06-03T01:27:33.182Z,76.59
2018-06-03T01:30:38.310Z,76.85
2018-06-03T01:33:44.134Z,76.68
2018-06-03T01:36:49.282Z,76.51
2018-06-03T01:39:54.415Z,77.04
2018-06-03T01:42:59.527Z,77.36
2018-06-03T01:46:04.860Z,77.48
2018-06-03T01:49:10.175Z,77.44
2018-06-03T01:52:15.980Z,76.97
2018-06-03T01:55:20.881Z,77.19
2018-06-03T01:58:26.670Z,77.45
2018-06-03T02:01:31.753Z,77.26
2018-06-03T02:04:37.283Z,77.03
2018-06-03T02:07:42.390Z,76.96
2018-06-03T02:10:47.925Z,77.34
2018-06-03T02:13:53.846Z,77.76
2018-06-03T02:16:58.653Z,77.16
2018-06-03T02:20:04.310Z,78.12
2018-06-03T02:23:09.917Z,77.79
2018-06-03T02:26:15.952Z,77.17
2018-06-03T02:29:21.898Z,77.30
2018-06-03T02:32:26.990Z,77.24
2018-06-03T02:35:32.057Z,77.26
2018-06-03T02:38:37.854Z,78.11
2018-06-03T02:41:43.455Z,77.54
2018-06-03T02:44:48.545Z,77.87
2018-06-03T02:47:55.409Z,77.26
2018-06-03T02:51:00.516Z,77.69
2018-06-03T02:54:06.701Z,77.75
2018-06-03T02:57:12.428Z,77.93
2018-06-03T03:00:18.685Z,78.23
2018-06-03T03:03:24.619Z,77.57
2018-06-03T03:06:29.724Z,78.02
2018-06-03T03:09:34.527Z,77.47
2018-06-03T03:12:40.100Z,78.24
2018-06-03T03:15:45.222Z,77.43
2018-06-03T03:18:50.715Z,77.91
2018-06-03T03:21:55.822Z,77.80
2018-06-03T03:25:01.538Z,77.27
2018-06-03T03:28:07.086Z,77.69
2018-06-03T03:31:13.177Z,77.58
2018-06-03T03:34:19.713Z,77.09
2018-06-03T03:37:25.424Z,78.24
2018-06-03T03:40:31.573Z,78.39
2018-06-03T03:43:37.706Z,77.63
2018-06-03T03:46:42.785Z,77.91
2018-06-03T03:49:47.950Z,78.23
2018-06-03T03:52:53.058Z,77.51
2018-06-03T03:55:59.250Z,77.89
2018-06-03T03:59:04.667Z,77.27
2018-06-03T04:02:09.789Z,77.71
2018-06-03T04:05:15.666Z,77.82
2018-06-03T04:08:20.765Z,77.91
2018-06-03T04:11:25.847Z,77.51
2018-06-03T04:14:31.929Z,77.20
2018-06-03T04:17:37.412Z,77.81
2018-06-03T04:20:42.497Z,78.50
2018-06-03T04:23:47.579Z,77.93
2018-06-03T04:26:53.498Z,77.38
2018-06-03T04:29:58.568Z,77.72
2018-06-03T04:33:03.865Z,77.79
2018-06-03T04:36:08.954Z,77.77
2018-06-03T04:39:14.060Z,77.71
2018-06-03T04:42:19.681Z,77.97
2018-06-03T04:45:24.803Z,77.85
2018-06-03T04:48:30.161Z,78.12
2018-06-03T04:51:36.251Z,78.19
2018-06-03T04:54:41.354Z,78.78
2018-06-03T04:57:46.974Z,78.75
2018-06-03T05:00:53.007Z,78.53
2018-06-03T05:03:58.581Z,78.72
2018-06-03T05:07:03.673Z,78.38
2018-06-03T05:10:09.486Z,79.38
2018-06-03T05:13:14.337Z,78.91
2018-06-03T05:16:20.870Z,79.45
2018-06-03T05:19:26.960Z,78.85
2018-06-03T05:22:32.657Z,79.30
2018-06-03T05:25:37.782Z,78.35
2018-06-03T05:28:43.193Z,78.63
2018-06-03T05:31:48.521Z,78.89
2018-06-03T05:34:54.030Z,79.88
2018-06-03T05:37:59.474Z,79.27
2018-06-03T05:41:05.041Z,79.48
2018-06-03T05:44:10.133Z,78.70
2018-06-03T05:47:16.077Z,78.78
2018-06-03T05:50:22.269Z,79.51
2018-06-03T05:53:28.485Z,78.93
2018-06-03T05:56:34.198Z,78.94
2018-06-03T05:59:39.290Z,78.80
2018-06-03T06:02:44.865Z,79.65
2018-06-03T06:05:49.938Z,79.37
2018-06-03T06:08:55.029Z,79.16
2018-06-03T06:12:00.917Z,79.63
2018-06-03T06:15:06.028Z,79.77
2018-06-03T06:18:11.755Z,78.58
2018-06-03T06:21:16.972Z,78.95
2018-06-03T06:24:22.794Z,79.10
2018-06-03T06:27:27.867Z,79.15
2018-06-03T06:30:34.033Z,79.14
2018-06-03T06:33:39.547Z,79.20
2018-06-03T06:36:45.473Z,78.94
2018-06-03T06:39:50.548Z,79.45
2018-06-03T06:42:55.650Z,78.68
2018-06-03T06:46:01.790Z,79.67
2018-06-03T06:49:06.874Z,79.75
2018-06-03T06:52:12.470Z,79.64
2018-06-03T06:55:18.582Z,78.75
2018-06-03T06:58:24.088Z,79.79
2018-06-03T07:01:29.140Z,79.46
2018-06-03T07:04:35.333Z,78.88
2018-06-03T07:07:40.841Z,78.94
2018-06-03T07:10:45.938Z,79.56
2018-06-03T07:13:51.035Z,79.40
2018-06-03T07:16:57.482Z,79.10
2018-06-03T07:20:03.742Z,79.71
2018-06-03T07:23:09.533Z,79.38
2018-06-03T07:26:14.612Z,79.69
2018-06-03T07:29:20.536Z,79.01
2018-06-03T07:32:25.671Z,79.00
2018-06-03T07:35:30.903Z,79.22
2018-06-03T07:38:37.766Z,79.46
2018-06-03T07:41:43.841Z,79.53
2018-06-03T07:44:49.432Z,78.94
2018-06-03T07:47:54.621Z,78.29
2018-06-03T07:50:59.718Z,78.17
2018-06-03T07:54:05.834Z,79.03
2018-06-03T07:57:11.033Z,78.17
2018-06-03T08:00:16.122Z,78.86
2018-06-03T08:03:21.204Z,79.19
2018-06-03T08:06:26.290Z,78.67
2018-06-03T08:09:31.381Z,78.39
2018-06-03T08:12:37.186Z,78.48
2018-06-03T08:15:42.722Z,78.23
2018-06-03T08:18:48.864Z,78.84
2018-06-03T08:21:53.950Z,78.25
2018-06-03T08:24:59.911Z,78.33
2018-06-03T08:28:04.962Z,78.56
2018-06-03T08:31:10.939Z,78.91
2018-06-03T08:34:17.545Z,78.33
2018-06-03T08:48:58.374Z,78.53
2018-06-03T08:52:03.484Z,78.38
2018-06-03T08:55:09.694Z,78.50
2018-06-03T08:58:15.577Z,77.71
2018-06-03T09:01:21.550Z,78.60
2018-06-03T09:04:27.502Z,77.32
2018-06-03T09:07:33.301Z,78.25
2018-06-03T09:10:38.474Z,78.34
2018-06-03T09:13:43.569Z,77.84
2018-06-03T09:16:48.654Z,78.07
2018-06-03T09:19:54.817Z,77.49
2018-06-03T09:22:59.908Z,77.77
2018-06-03T09:26:05.729Z,77.34
2018-06-03T09:29:10.882Z,77.13
2018-06-03T09:32:16.430Z,77.74
2018-06-03T09:35:22.437Z,77.17
2018-06-03T09:38:27.646Z,77.03
2018-06-03T10:16:13.919Z,77.76
2018-06-03T10:19:19.817Z,77.30
2018-06-03T10:22:25.054Z,77.64
2018-06-03T10:25:30.828Z,77.93
2018-06-03T10:28:35.925Z,77.31
2018-06-03T10:31:41.067Z,77.55
2018-06-03T10:34:46.144Z,77.80
2018-06-03T10:37:52.110Z,77.37
2018-06-03T10:40:57.317Z,76.93
2018-06-03T10:44:03.254Z,76.91
2018-06-03T10:47:08.305Z,76.39
2018-06-03T10:50:13.452Z,77.08
2018-06-03T10:53:19.393Z,76.71
2018-06-03T10:56:24.490Z,76.53
2018-06-03T10:59:30.140Z,75.70
2018-06-03T11:02:36.032Z,75.68
2018-06-03T11:05:41.133Z,76.25
2018-06-03T11:08:46.509Z,75.61
2018-06-03T11:11:51.883Z,75.32
2018-06-03T11:14:57.288Z,75.17
2018-06-03T11:18:02.411Z,74.86
2018-06-03T11:21:07.504Z,74.87
2018-06-03T11:24:12.696Z,75.22
2018-06-03T11:27:18.832Z,75.35
2018-06-03T11:30:23.880Z,75.36
2018-06-03T11:33:28.980Z,74.70
2018-06-03T11:36:34.249Z,75.11
2018-06-03T11:39:40.249Z,74.93
2018-06-03T11:42:46.158Z,73.90
2018-06-03T11:45:52.090Z,74.20
2018-06-03T11:48:57.153Z,73.80
2018-06-03T11:52:02.703Z,73.71
2018-06-03T11:55:08.880Z,73.30
2018-06-03T11:58:54.265Z,73.16
2018-06-03T12:01:59.101Z,74.13
2018-06-03T12:05:05.135Z,74.35
2018-06-03T12:08:10.199Z,74.05
2018-06-03T12:11:15.631Z,74.12
2018-06-03T12:14:20.687Z,73.33
2018-06-03T12:17:26.279Z,74.14
2018-06-03T12:20:31.407Z,74.26
2018-06-03T12:23:36.693Z,73.67
2018-06-03T12:26:41.757Z,73.63
2018-06-03T12:29:46.608Z,74.50
2018-06-03T12:32:51.669Z,73.99
2018-06-03T12:35:56.776Z,74.42
2018-06-03T12:39:02.082Z,74.34
2018-06-03T12:42:06.844Z,74.15
2018-06-03T12:45:12.433Z,73.60
2018-06-03T12:48:17.892Z,74.43
2018-06-03T12:51:23.585Z,73.39
2018-06-03T12:54:28.715Z,73.76
2018-06-03T12:57:33.788Z,73.49
2018-06-03T13:00:39.818Z,73.78
2018-06-03T13:03:45.559Z,74.21
2018-06-03T13:06:50.698Z,74.19
2018-06-03T13:09:55.753Z,73.32
2018-06-03T13:13:01.162Z,73.97
2018-06-03T13:16:07.159Z,72.98
2018-06-03T13:19:12.286Z,73.20
2018-06-03T13:22:18.560Z,73.87
2018-06-03T13:25:23.829Z,73.71
2018-06-03T13:28:29.415Z,72.91
2018-06-03T13:31:35.322Z,73.18
2018-06-03T13:34:40.397Z,72.97
2018-06-03T13:37:46.419Z,72.85
2018-06-03T13:40:51.824Z,72.22
2018-06-03T13:43:56.937Z,72.51
2018-06-03T13:47:01.721Z,72.88
2018-06-03T13:50:07.658Z,72.17
2018-06-03T13:53:13.478Z,72.40
2018-06-03T13:56:18.622Z,71.77
2018-06-03T13:59:25.340Z,72.33
2018-06-03T14:02:30.825Z,71.80
2018-06-03T14:05:36.803Z,72.12
2018-06-03T14:08:42.507Z,72.27
2018-06-03T14:11:47.573Z,70.50
2018-06-03T14:14:54.016Z,70.80
2018-06-03T14:18:00.061Z,71.48
2018-06-03T14:21:05.918Z,71.39
2018-06-03T14:24:11.752Z,70.65
2018-06-03T14:27:17.297Z,71.09
2018-06-03T14:30:23.066Z,71.30
2018-06-03T14:33:28.577Z,70.79
2018-06-03T14:36:33.683Z,71.21
2018-06-03T14:39:38.765Z,71.06
2018-06-03T14:42:44.249Z,71.28
2018-06-03T14:45:49.081Z,70.44
2018-06-03T14:48:55.984Z,70.50
2018-06-03T14:52:01.099Z,70.07
2018-06-03T14:55:06.858Z,70.72
2018-06-03T14:58:11.643Z,70.94
2018-06-03T15:01:16.787Z,71.23
2018-06-03T15:04:21.848Z,69.63
2018-06-03T15:07:26.924Z,70.31
2018-06-03T15:10:31.780Z,70.11
2018-06-03T15:13:36.723Z,70.55
2018-06-03T15:16:43.021Z,70.11
2018-06-03T15:19:48.433Z,69.60
2018-06-03T15:22:53.573Z,70.11
2018-06-03T15:26:00.171Z,69.57
2018-06-03T15:29:05.545Z,68.86
2018-06-03T15:32:11.295Z,69.21
2018-06-03T15:35:16.921Z,69.86
2018-06-03T15:38:21.698Z,69.47
2018-06-03T15:41:28.470Z,69.66
2018-06-03T15:44:33.668Z,69.87
2018-06-03T15:47:38.785Z,68.91
2018-06-03T15:50:43.590Z,68.90
2018-06-03T15:53:48.420Z,68.74
2018-06-03T15:56:53.804Z,69.79
2018-06-03T15:59:59.008Z,68.62
2018-06-03T16:03:04.546Z,68.93
2018-06-03T16:06:10.147Z,69.61
2018-06-03T16:09:16.161Z,68.83
2018-06-03T16:12:21.700Z,69.30
2018-06-03T16:15:28.248Z,68.51
2018-06-03T16:18:33.763Z,69.43
2018-06-03T16:21:39.796Z,69.22
2018-06-03T16:24:45.181Z,68.36
2018-06-03T16:27:49.986Z,68.76
2018-06-03T16:30:55.545Z,69.42
2018-06-03T16:34:00.360Z,69.09
2018-06-03T16:37:06.248Z,68.82
2018-06-03T16:40:11.801Z,69.45
2018-06-03T16:43:16.892Z,68.78
2018-06-03T16:46:21.848Z,68.96
2018-06-03T16:49:27.384Z,69.65
2018-06-03T16:52:33.171Z,69.74
2018-06-03T16:55:38.303Z,68.74
2018-06-03T16:58:43.141Z,69.00
2018-06-03T17:01:48.110Z,69.11
2018-06-03T17:04:53.921Z,68.74
2018-06-03T17:07:59.066Z,69.53
2018-06-03T17:11:03.951Z,69.19
2018-06-03T17:14:09.260Z,69.58
2018-06-03T17:17:14.370Z,69.28
2018-06-03T17:20:20.108Z,69.26
2018-06-03T17:23:26.228Z,69.40
2018-06-03T17:26:31.941Z,69.00
2018-06-03T17:29:37.140Z,69.52
2018-06-03T17:32:43.162Z,68.51
2018-06-03T17:35:47.940Z,69.18
2018-06-03T17:38:54.401Z,69.75
2018-06-03T17:41:59.232Z,69.06
2018-06-03T17:45:04.580Z,69.60
2018-06-03T17:48:09.426Z,69.35
2018-06-03T17:51:14.640Z,69.04
2018-06-03T17:54:20.436Z,69.40
2018-06-03T17:57:26.073Z,69.08
2018-06-03T18:00:31.696Z,69.12
2018-06-03T18:03:36.801Z,69.66
2018-06-03T18:06:42.458Z,69.12
2018-06-03T18:09:47.945Z,69.50
2018-06-03T18:12:52.976Z,69.42
2018-06-03T18:15:58.448Z,69.99
2018-06-03T18:19:04.168Z,69.28
2018-06-03T18:22:09.984Z,70.20
2018-06-03T18:25:15.404Z,69.33
2018-06-03T18:28:20.351Z,69.84
2018-06-03T18:31:25.488Z,70.45
2018-06-03T18:34:30.553Z,70.09
2018-06-03T18:37:36.553Z,70.48
2018-06-03T18:40:41.941Z,69.91
2018-06-03T18:43:46.780Z,70.31
2018-06-03T18:46:52.016Z,70.56
2018-06-03T18:49:57.113Z,69.85
2018-06-03T18:53:01.950Z,69.88
2018-06-03T18:56:07.232Z,69.81
2018-06-03T18:59:12.088Z,70.37
2018-06-03T19:02:17.299Z,69.79
2018-06-03T19:05:22.198Z,69.92
2018-06-03T19:08:27.141Z,69.57
2018-06-03T19:11:32.911Z,70.71
2018-06-03T19:14:39.408Z,70.29
2018-06-03T19:17:44.276Z,70.22
2018-06-03T19:20:50.979Z,70.45
2018-06-03T19:23:55.793Z,70.25
2018-06-03T19:27:01.607Z,69.81
2018-06-03T19:30:06.577Z,70.43
2018-06-03T19:33:11.585Z,70.52
2018-06-03T19:36:18.016Z,69.65
2018-06-03T19:39:22.964Z,69.68
2018-06-03T19:42:27.760Z,70.07
2018-06-03T19:45:33.145Z,70.03
2018-06-03T19:48:39.809Z,69.65
2018-06-03T19:51:44.593Z,69.89
2018-06-03T19:54:51.537Z,70.07
2018-06-03T19:57:56.592Z,70.53
2018-06-03T20:01:01.965Z,70.80
2018-06-03T20:04:06.757Z,70.82
2018-06-03T20:07:12.456Z,70.71
2018-06-03T20:10:18.370Z,70.36
2018-06-03T20:13:23.704Z,70.07
2018-06-03T20:16:28.520Z,70.46
2018-06-03T20:19:35.332Z,70.06
2018-06-03T20:22:40.967Z,70.39
2018-06-03T20:25:45.900Z,70.07
2018-06-03T20:28:50.757Z,70.42
2018-06-03T20:31:55.590Z,70.56
2018-06-03T20:35:01.352Z,70.35
2018-06-03T20:38:06.607Z,70.35
2018-06-03T20:41:11.460Z,71.14
2018-06-03T20:44:16.917Z,70.87
2018-06-03T20:47:22.312Z,71.40
2018-06-03T20:50:27.145Z,71.10
2018-06-03T20:53:33.280Z,70.83
2018-06-03T20:56:38.999Z,71.63
2018-06-03T20:59:44.812Z,70.75
2018-06-03T21:02:50.153Z,70.86
2018-06-03T21:05:55.226Z,71.80
2018-06-03T21:09:00.090Z,71.26
2018-06-03T21:12:04.961Z,71.41
2018-06-03T21:15:09.753Z,71.38
2018-06-03T21:18:15.273Z,71.75
2018-06-03T21:21:20.077Z,72.09
2018-06-03T21:24:24.944Z,71.85
2018-06-03T21:27:29.758Z,72.19
2018-06-03T21:30:34.995Z,72.00
2018-06-03T21:33:39.775Z,72.08
2018-06-03T21:36:44.638Z,71.89
2018-06-03T21:39:50.985Z,71.86
2018-06-03T21:42:55.841Z,71.81
2018-06-03T21:46:01.451Z,72.49
2018-06-03T21:49:06.252Z,71.66
2018-06-03T21:52:11.590Z,72.57
2018-06-03T21:55:17.315Z,72.56
2018-06-03T21:58:22.743Z,72.89
2018-06-03T22:01:28.031Z,72.47
2018-06-03T22:04:32.824Z,72.88
2018-06-03T22:07:38.380Z,72.64
2018-06-03T22:10:43.161Z,73.04
2018-06-03T22:13:48.381Z,73.11
2018-06-03T22:16:53.689Z,73.43
2018-06-03T22:19:58.733Z,73.10
2018-06-03T22:23:04.378Z,73.25
2018-06-03T22:26:09.892Z,72.54
2018-06-03T22:29:14.689Z,73.79
2018-06-03T22:32:20.215Z,73.12
2018-06-03T22:35:26.297Z,72.73
2018-06-03T22:38:31.093Z,73.21
2018-06-03T22:41:36.755Z,73.22
2018-06-03T22:44:42.580Z,73.08
2018-06-03T22:47:47.376Z,73.93
2018-06-03T22:50:53.045Z,74.17
2018-06-03T22:53:57.876Z,73.56
2018-06-03T22:57:43.489Z,74.45
2018-06-03T23:00:49.221Z,74.42
2018-06-03T23:03:55.402Z,73.53
2018-06-03T23:07:01.117Z,74.23
2018-06-03T23:10:05.884Z,73.88
2018-06-03T23:13:10.937Z,74.45
2018-06-03T23:16:16.534Z,73.68
2018-06-03T23:19:22.624Z,73.90
2018-06-03T23:22:28.865Z,74.71
2018-06-03T23:25:34.434Z,74.68
2018-06-03T23:28:40.211Z,74.68
2018-06-03T23:31:46.743Z,74.29
2018-06-03T23:34:51.880Z,74.60
2018-06-03T23:37:57.436Z,74.71
2018-06-03T23:41:03.416Z,74.02
2018-06-03T23:44:08.479Z,74.98
2018-06-03T23:47:13.563Z,74.98
2018-06-03T23:50:19.031Z,74.93
2018-06-03T23:53:24.897Z,74.16
2018-06-03T23:56:29.981Z,74.30
2018-06-03T23:59:34.870Z,75.17
